DLH4LY EPKK-EDDM
Flight info
| Callsign | DLH4LY |
|---|---|
| Flight time | N/A |
| Altitude | 32000 |
| Route | ADADO DCT UTEVO DCT VOZ DCT BAVRI/N0398F300 T110 BINGU T108 LANDU LANDU2B |
| Aircraft | A320/M-SDE2E3FGIJ1LORWXYZ/HB1 |
Departure
| Time | 2026-05-07 18:25 |
|---|---|
| Airport | Kraków John Paul II International Airport (EPKK) |
Arrival
| Time | N/A |
|---|---|
| Airport | Munich Airport (EDDM) |
| Time | Latitude | Longitude | Altitude | Speed | Heading |
|---|---|---|---|---|---|
| 2026-05-07 17:28 | 50.07333 | 19.80208 | 800 ft | 0 kts | 168° |
| 2026-05-07 17:29 | 50.07412 | 19.80464 | 800 ft | 0 kts | 107° |
| 2026-05-07 18:11 | 50.07416 | 19.80443 | 800 ft | 4 kts | 107° |
| 2026-05-07 18:11 | 50.07422 | 19.80412 | 800 ft | 4 kts | 112° |
| 2026-05-07 18:12 | 50.07435 | 19.80385 | 800 ft | 1 kts | 136° |
| 2026-05-07 18:12 | 50.07448 | 19.80359 | 800 ft | 4 kts | 84° |
| 2026-05-07 18:12 | 50.07441 | 19.80323 | 800 ft | 2 kts | 77° |
| 2026-05-07 18:12 | 50.07438 | 19.80302 | 800 ft | 0 kts | 77° |
| 2026-05-07 18:18 | 50.07439 | 19.80312 | 800 ft | 1 kts | 77° |
| 2026-05-07 18:18 | 50.07441 | 19.80321 | 800 ft | 0 kts | 77° |
| 2026-05-07 18:19 | 50.07444 | 19.80338 | 800 ft | 4 kts | 74° |
| 2026-05-07 18:19 | 50.07459 | 19.80372 | 800 ft | 3 kts | 41° |
| 2026-05-07 18:19 | 50.07478 | 19.80385 | 800 ft | 3 kts | 16° |
| 2026-05-07 18:19 | 50.07492 | 19.80390 | 800 ft | 2 kts | 12° |
| 2026-05-07 18:20 | 50.07501 | 19.80393 | 800 ft | 1 kts | 12° |
| 2026-05-07 18:20 | 50.07505 | 19.80394 | 800 ft | 1 kts | 13° |
| 2026-05-07 18:20 | 50.07511 | 19.80397 | 800 ft | 3 kts | 14° |
| 2026-05-07 18:20 | 50.07541 | 19.80411 | 800 ft | 5 kts | 17° |
| 2026-05-07 18:21 | 50.07574 | 19.80423 | 800 ft | 5 kts | 7° |
| 2026-05-07 18:21 | 50.07613 | 19.80416 | 800 ft | 6 kts | 348° |
| 2026-05-07 18:21 | 50.07652 | 19.80402 | 800 ft | 5 kts | 347° |
| 2026-05-07 18:21 | 50.07686 | 19.80390 | 800 ft | 5 kts | 347° |
| 2026-05-07 18:22 | 50.07717 | 19.80379 | 800 ft | 6 kts | 347° |
| 2026-05-07 18:22 | 50.07741 | 19.80371 | 800 ft | 5 kts | 347° |
| 2026-05-07 18:22 | 50.07791 | 19.80353 | 800 ft | 8 kts | 347° |
| 2026-05-07 18:22 | 50.07845 | 19.80336 | 800 ft | 10 kts | 348° |
| 2026-05-07 18:23 | 50.07928 | 19.80310 | 800 ft | 9 kts | 348° |
| 2026-05-07 18:23 | 50.07983 | 19.80289 | 799 ft | 8 kts | 341° |
| 2026-05-07 18:23 | 50.08020 | 19.80238 | 800 ft | 6 kts | 296° |
| 2026-05-07 18:23 | 50.08016 | 19.80185 | 800 ft | 4 kts | 256° |
| 2026-05-07 18:24 | 50.08014 | 19.80175 | 800 ft | 0 kts | 255° |
| 2026-05-07 18:24 | 50.08012 | 19.80166 | 800 ft | 5 kts | 255° |
| 2026-05-07 18:24 | 50.07969 | 19.79885 | 800 ft | 62 kts | 257° |
| 2026-05-07 18:25 | 50.07825 | 19.78868 | 803 ft | 128 kts | 257° |
| 2026-05-07 18:25 | 50.07606 | 19.77252 | 894 ft | 170 kts | 257° |
| 2026-05-07 18:25 | 50.07373 | 19.75352 | 1415 ft | 186 kts | 257° |
| 2026-05-07 18:25 | 50.07113 | 19.73337 | 2096 ft | 193 kts | 259° |
| 2026-05-07 18:26 | 50.06833 | 19.71238 | 2757 ft | 204 kts | 258° |
| 2026-05-07 18:26 | 50.06536 | 19.69012 | 3442 ft | 216 kts | 258° |
| 2026-05-07 18:26 | 50.06225 | 19.66674 | 4216 ft | 225 kts | 259° |
| 2026-05-07 18:26 | 50.05905 | 19.64289 | 4986 ft | 236 kts | 258° |
| 2026-05-07 18:27 | 50.05522 | 19.61680 | 5571 ft | 254 kts | 257° |
| 2026-05-07 18:27 | 50.05103 | 19.58933 | 6468 ft | 261 kts | 257° |
| 2026-05-07 18:27 | 50.04684 | 19.56162 | 7379 ft | 265 kts | 256° |
| 2026-05-07 18:27 | 50.04406 | 19.54306 | 7996 ft | 267 kts | 256° |
| 2026-05-07 18:28 | 50.03850 | 19.50545 | 9221 ft | 272 kts | 256° |
| 2026-05-07 18:28 | 50.03431 | 19.47662 | 10119 ft | 276 kts | 256° |
| 2026-05-07 18:28 | 50.02990 | 19.44600 | 10529 ft | 298 kts | 256° |
| 2026-05-07 18:28 | 50.02725 | 19.41346 | 11028 ft | 314 kts | 267° |
| 2026-05-07 18:29 | 50.02919 | 19.37920 | 11779 ft | 322 kts | 277° |
| 2026-05-07 18:29 | 50.03279 | 19.34460 | 12594 ft | 326 kts | 276° |
| 2026-05-07 18:29 | 50.03634 | 19.30950 | 13397 ft | 330 kts | 276° |
| 2026-05-07 18:29 | 50.03986 | 19.27399 | 14139 ft | 334 kts | 275° |
| 2026-05-07 18:30 | 50.04338 | 19.23804 | 14739 ft | 339 kts | 275° |
| 2026-05-07 18:30 | 50.04693 | 19.20170 | 14923 ft | 340 kts | 275° |
| 2026-05-07 18:30 | 50.05051 | 19.16541 | 14964 ft | 339 kts | 275° |
| 2026-05-07 18:30 | 50.05409 | 19.12924 | 14959 ft | 339 kts | 275° |
| 2026-05-07 18:31 | 50.05768 | 19.09297 | 14968 ft | 339 kts | 275° |
| 2026-05-07 18:31 | 50.06123 | 19.05670 | 14967 ft | 339 kts | 275° |
| 2026-05-07 18:31 | 50.06477 | 19.02037 | 15131 ft | 343 kts | 276° |
| 2026-05-07 18:31 | 50.06835 | 18.98354 | 15879 ft | 345 kts | 276° |
| 2026-05-07 18:32 | 50.07196 | 18.94653 | 16604 ft | 348 kts | 276° |
| 2026-05-07 18:32 | 50.07563 | 18.90916 | 17317 ft | 351 kts | 276° |
| 2026-05-07 18:32 | 50.07930 | 18.87140 | 18008 ft | 354 kts | 276° |
| 2026-05-07 18:32 | 50.08297 | 18.83323 | 18617 ft | 358 kts | 275° |
| 2026-05-07 18:33 | 50.08667 | 18.79477 | 19197 ft | 361 kts | 275° |
| 2026-05-07 18:33 | 50.09085 | 18.75596 | 19786 ft | 366 kts | 277° |
| 2026-05-07 18:33 | 50.09611 | 18.71697 | 20367 ft | 370 kts | 278° |
| 2026-05-07 18:33 | 50.10202 | 18.67773 | 20933 ft | 374 kts | 278° |
| 2026-05-07 18:34 | 50.10822 | 18.63826 | 21498 ft | 377 kts | 278° |
| 2026-05-07 18:34 | 50.11449 | 18.59828 | 22071 ft | 381 kts | 278° |
| 2026-05-07 18:34 | 50.12065 | 18.55810 | 22653 ft | 383 kts | 277° |
| 2026-05-07 18:34 | 50.12670 | 18.51748 | 23210 ft | 386 kts | 276° |
| 2026-05-07 18:35 | 50.13260 | 18.47653 | 23706 ft | 388 kts | 275° |
| 2026-05-07 18:35 | 50.13765 | 18.43620 | 24122 ft | 390 kts | 274° |
| 2026-05-07 18:35 | 50.14232 | 18.39345 | 24574 ft | 392 kts | 272° |
| 2026-05-07 18:35 | 50.14657 | 18.35127 | 25008 ft | 395 kts | 272° |
| 2026-05-07 18:36 | 50.15076 | 18.30877 | 25423 ft | 398 kts | 272° |
| 2026-05-07 18:36 | 50.15503 | 18.26601 | 25845 ft | 401 kts | 272° |
| 2026-05-07 18:36 | 50.15946 | 18.22291 | 26260 ft | 404 kts | 272° |
| 2026-05-07 18:36 | 50.16405 | 18.17960 | 26665 ft | 407 kts | 272° |
| 2026-05-07 18:37 | 50.16875 | 18.13589 | 27069 ft | 410 kts | 272° |
| 2026-05-07 18:37 | 50.17351 | 18.09192 | 27458 ft | 413 kts | 272° |
| 2026-05-07 18:37 | 50.17824 | 18.04766 | 27842 ft | 415 kts | 272° |
| 2026-05-07 18:37 | 50.18292 | 18.00304 | 28234 ft | 418 kts | 272° |
| 2026-05-07 18:38 | 50.18759 | 17.95812 | 28625 ft | 421 kts | 272° |
| 2026-05-07 18:38 | 50.19228 | 17.91296 | 29001 ft | 423 kts | 272° |
| 2026-05-07 18:38 | 50.19703 | 17.86746 | 29385 ft | 426 kts | 272° |
| 2026-05-07 18:38 | 50.20180 | 17.82163 | 29762 ft | 429 kts | 272° |
| 2026-05-07 18:39 | 50.20660 | 17.77553 | 30119 ft | 432 kts | 272° |
| 2026-05-07 18:39 | 50.20958 | 17.72926 | 30419 ft | 426 kts | 264° |
| 2026-05-07 18:39 | 50.20971 | 17.68295 | 30792 ft | 427 kts | 264° |
| 2026-05-07 18:39 | 50.20977 | 17.63660 | 31099 ft | 428 kts | 264° |
| 2026-05-07 18:40 | 50.20984 | 17.59063 | 31383 ft | 430 kts | 264° |
| 2026-05-07 18:40 | 50.20934 | 17.54396 | 31707 ft | 427 kts | 259° |
| 2026-05-07 18:40 | 50.20499 | 17.49850 | 31940 ft | 421 kts | 251° |
| 2026-05-07 18:40 | 50.19649 | 17.45551 | 31987 ft | 405 kts | 244° |
| 2026-05-07 18:41 | 50.18666 | 17.41538 | 31990 ft | 390 kts | 244° |
| 2026-05-07 18:41 | 50.16754 | 17.33734 | 31990 ft | 382 kts | 243° |
| 2026-05-07 18:42 | 50.14852 | 17.25995 | 31997 ft | 382 kts | 243° |
| 2026-05-07 18:42 | 50.12959 | 17.18262 | 31989 ft | 382 kts | 244° |
| 2026-05-07 18:43 | 50.11064 | 17.10544 | 31983 ft | 381 kts | 244° |
| 2026-05-07 18:43 | 50.09161 | 17.02851 | 31980 ft | 380 kts | 244° |
| 2026-05-07 18:44 | 50.07261 | 16.95175 | 31971 ft | 380 kts | 244° |
| 2026-05-07 18:44 | 50.05671 | 16.88809 | 31974 ft | 379 kts | 244° |
| 2026-05-07 18:45 | 50.03764 | 16.81163 | 31977 ft | 379 kts | 244° |
| 2026-05-07 18:45 | 50.01856 | 16.73518 | 31974 ft | 379 kts | 244° |
| 2026-05-07 18:46 | 49.99941 | 16.65888 | 31973 ft | 379 kts | 244° |
| 2026-05-07 18:46 | 49.98019 | 16.58268 | 32006 ft | 379 kts | 244° |
| 2026-05-07 18:47 | 49.96085 | 16.50638 | 31985 ft | 380 kts | 244° |
| 2026-05-07 18:47 | 49.94148 | 16.43007 | 31978 ft | 380 kts | 244° |
| 2026-05-07 18:48 | 49.92206 | 16.35376 | 31973 ft | 381 kts | 244° |
| 2026-05-07 18:48 | 49.90254 | 16.27736 | 31975 ft | 381 kts | 244° |
| 2026-05-07 18:49 | 49.88297 | 16.20110 | 31979 ft | 381 kts | 244° |
| 2026-05-07 18:49 | 49.86334 | 16.12482 | 31976 ft | 381 kts | 244° |
| 2026-05-07 18:50 | 49.84369 | 16.04868 | 32014 ft | 381 kts | 244° |
| 2026-05-07 18:50 | 49.82402 | 15.97251 | 31999 ft | 381 kts | 244° |
| 2026-05-07 18:51 | 49.80429 | 15.89650 | 31992 ft | 381 kts | 244° |
| 2026-05-07 18:51 | 49.78447 | 15.82048 | 31985 ft | 381 kts | 244° |
| 2026-05-07 18:52 | 49.76467 | 15.74514 | 31989 ft | 381 kts | 244° |
| 2026-05-07 18:52 | 49.74464 | 15.66880 | 31988 ft | 381 kts | 244° |
| 2026-05-07 18:53 | 49.72477 | 15.59301 | 31994 ft | 381 kts | 244° |
| 2026-05-07 18:53 | 49.70481 | 15.51723 | 31996 ft | 381 kts | 244° |
| 2026-05-07 18:54 | 49.68475 | 15.44150 | 31996 ft | 381 kts | 245° |
| 2026-05-07 18:54 | 49.66453 | 15.36569 | 31991 ft | 382 kts | 245° |
| 2026-05-07 18:55 | 49.64422 | 15.28969 | 31987 ft | 383 kts | 245° |
| 2026-05-07 18:55 | 49.62389 | 15.21372 | 31990 ft | 383 kts | 246° |
| 2026-05-07 18:56 | 49.60353 | 15.13774 | 32000 ft | 383 kts | 246° |
| 2026-05-07 18:56 | 49.58316 | 15.06201 | 32005 ft | 383 kts | 246° |
| 2026-05-07 18:57 | 49.56265 | 14.98641 | 32008 ft | 382 kts | 245° |
| 2026-05-07 18:57 | 49.54217 | 14.91093 | 32019 ft | 382 kts | 246° |
| 2026-05-07 18:58 | 49.51875 | 14.83758 | 32016 ft | 382 kts | 240° |
| 2026-05-07 18:58 | 49.49234 | 14.76658 | 32011 ft | 382 kts | 239° |
| 2026-05-07 18:59 | 49.46634 | 14.69669 | 31995 ft | 383 kts | 240° |
| 2026-05-07 18:59 | 49.43990 | 14.62576 | 32002 ft | 383 kts | 240° |
| 2026-05-07 19:00 | 49.41344 | 14.55500 | 32014 ft | 382 kts | 240° |
| 2026-05-07 19:00 | 49.38698 | 14.48438 | 32020 ft | 382 kts | 240° |
| 2026-05-07 19:01 | 49.36016 | 14.41304 | 32017 ft | 382 kts | 240° |
| 2026-05-07 19:01 | 49.33351 | 14.34225 | 32027 ft | 383 kts | 240° |
| 2026-05-07 19:02 | 49.30680 | 14.27148 | 32009 ft | 384 kts | 241° |
| 2026-05-07 19:02 | 49.27997 | 14.20065 | 32012 ft | 385 kts | 240° |
| 2026-05-07 19:03 | 49.25304 | 14.12976 | 32021 ft | 385 kts | 240° |
| 2026-05-07 19:03 | 49.22607 | 14.05885 | 32008 ft | 384 kts | 240° |
| 2026-05-07 19:03 | 49.21272 | 14.02383 | 31624 ft | 379 kts | 240° |
| 2026-05-07 19:04 | 49.19952 | 13.98919 | 31170 ft | 375 kts | 241° |
| 2026-05-07 19:04 | 49.18642 | 13.95488 | 30725 ft | 371 kts | 241° |
| 2026-05-07 19:04 | 49.17343 | 13.92099 | 30283 ft | 368 kts | 241° |
| 2026-05-07 19:04 | 49.16055 | 13.88741 | 29801 ft | 365 kts | 241° |
| 2026-05-07 19:05 | 49.14775 | 13.85412 | 29274 ft | 362 kts | 241° |
| 2026-05-07 19:05 | 49.13508 | 13.82118 | 28748 ft | 358 kts | 241° |
| 2026-05-07 19:05 | 49.12247 | 13.78847 | 28216 ft | 356 kts | 242° |
| 2026-05-07 19:05 | 49.10991 | 13.75600 | 27692 ft | 354 kts | 242° |
| 2026-05-07 19:06 | 49.09743 | 13.72373 | 27174 ft | 352 kts | 242° |
| 2026-05-07 19:06 | 49.07274 | 13.65981 | 26214 ft | 348 kts | 242° |
| 2026-05-07 19:06 | 49.06047 | 13.62809 | 25741 ft | 346 kts | 242° |
| 2026-05-07 19:07 | 49.04826 | 13.59664 | 25288 ft | 344 kts | 242° |
| 2026-05-07 19:07 | 49.03608 | 13.56541 | 24833 ft | 342 kts | 242° |
| 2026-05-07 19:07 | 49.02400 | 13.53442 | 24379 ft | 340 kts | 242° |
| 2026-05-07 19:07 | 49.01185 | 13.50360 | 23941 ft | 338 kts | 240° |
| 2026-05-07 19:08 | 48.99908 | 13.47358 | 23498 ft | 337 kts | 239° |
| 2026-05-07 19:08 | 48.98590 | 13.44421 | 23001 ft | 335 kts | 238° |
| 2026-05-07 19:08 | 48.97258 | 13.41520 | 22545 ft | 333 kts | 238° |
| 2026-05-07 19:08 | 48.95934 | 13.38649 | 22111 ft | 330 kts | 238° |
| 2026-05-07 19:09 | 48.94629 | 13.35803 | 21731 ft | 326 kts | 238° |
| 2026-05-07 19:09 | 48.93342 | 13.32978 | 21310 ft | 324 kts | 238° |
| 2026-05-07 19:09 | 48.92069 | 13.30168 | 20890 ft | 321 kts | 238° |
| 2026-05-07 19:09 | 48.90807 | 13.27377 | 20478 ft | 319 kts | 238° |
| 2026-05-07 19:10 | 48.89555 | 13.24604 | 20075 ft | 317 kts | 238° |
| 2026-05-07 19:10 | 48.88308 | 13.21844 | 19650 ft | 316 kts | 238° |
| 2026-05-07 19:10 | 48.87063 | 13.19093 | 19272 ft | 315 kts | 238° |
| 2026-05-07 19:10 | 48.85826 | 13.16364 | 18895 ft | 313 kts | 238° |
| 2026-05-07 19:11 | 48.84592 | 13.13648 | 18543 ft | 311 kts | 238° |
| 2026-05-07 19:11 | 48.83365 | 13.10953 | 18171 ft | 309 kts | 238° |
| 2026-05-07 19:11 | 48.82128 | 13.08238 | 17775 ft | 307 kts | 238° |